createdAt,value
2017-12-24T00:00:37.932Z,10.57
2017-12-24T00:03:06.269Z,10.70
2017-12-24T00:05:33.741Z,11.03
2017-12-24T00:08:02.418Z,10.87
2017-12-24T00:10:29.912Z,11.07
2017-12-24T00:12:57.420Z,11.87
2017-12-24T00:15:25.596Z,11.57
2017-12-24T00:17:53.058Z,11.03
2017-12-24T00:20:20.540Z,10.90
2017-12-24T00:28:33.052Z,9.93
2017-12-24T00:31:00.588Z,10.87
2017-12-24T00:33:28.036Z,10.13
2017-12-24T00:35:55.525Z,10.97
2017-12-24T00:38:22.997Z,10.50
2017-12-24T00:40:50.454Z,9.97
2017-12-24T00:43:17.926Z,9.00
2017-12-24T00:45:45.759Z,9.87
2017-12-24T00:48:13.222Z,9.80
2017-12-24T00:50:40.659Z,8.80
2017-12-24T00:53:08.134Z,9.17
2017-12-24T00:55:35.599Z,8.67
2017-12-24T00:58:03.088Z,9.00
2017-12-24T01:00:31.417Z,8.43
2017-12-24T01:02:59.773Z,8.70
2017-12-24T01:05:27.256Z,8.60
2017-12-24T01:07:54.735Z,8.73
2017-12-24T01:10:22.221Z,8.93
2017-12-24T01:12:49.675Z,8.57
2017-12-24T01:15:17.118Z,8.53
2017-12-24T01:17:45.186Z,7.90
2017-12-24T01:20:12.616Z,8.00
2017-12-24T01:22:45.196Z,7.90
2017-12-24T01:25:13.657Z,7.50
2017-12-24T01:27:41.234Z,7.63
2017-12-24T01:30:08.709Z,6.83
2017-12-24T01:32:36.185Z,6.93
2017-12-24T01:35:03.616Z,7.03
2017-12-24T01:37:31.069Z,6.83
2017-12-24T01:39:58.540Z,6.40
2017-12-24T01:42:26.433Z,7.13
2017-12-24T01:44:53.875Z,6.67
2017-12-24T01:47:21.399Z,6.77
2017-12-24T01:49:48.884Z,6.13
2017-12-24T01:52:16.354Z,6.50
2017-12-24T01:54:43.866Z,6.10
2017-12-24T01:57:11.354Z,6.27
2017-12-24T01:59:38.854Z,5.90
2017-12-24T02:02:06.936Z,6.30
2017-12-24T02:04:34.487Z,5.40
2017-12-24T02:07:02.060Z,5.67
2017-12-24T02:09:29.563Z,6.17
2017-12-24T02:11:57.105Z,6.10
2017-12-24T02:14:24.581Z,5.77
2017-12-24T02:16:52.105Z,6.07
2017-12-24T02:19:19.558Z,5.73
2017-12-24T02:21:47.048Z,5.80
2017-12-24T02:24:14.567Z,5.30
2017-12-24T02:26:42.052Z,5.27
2017-12-24T02:29:09.501Z,5.73
2017-12-24T02:31:36.929Z,5.70
2017-12-24T02:34:04.394Z,6.03
2017-12-24T02:36:31.864Z,5.30
2017-12-24T02:38:59.300Z,5.13
2017-12-24T02:41:26.732Z,5.40
2017-12-24T02:43:54.221Z,5.30
2017-12-24T02:46:21.672Z,4.97
2017-12-24T02:48:49.100Z,5.27
2017-12-24T02:51:16.532Z,5.33
2017-12-24T02:53:45.647Z,5.73
2017-12-24T02:56:13.141Z,5.50
2017-12-24T03:01:16.486Z,4.63
2017-12-24T03:03:43.915Z,5.23
2017-12-24T03:06:11.382Z,5.17
2017-12-24T03:08:39.663Z,5.63
2017-12-24T03:11:07.126Z,4.80
2017-12-24T03:13:34.702Z,4.90
2017-12-24T03:16:02.122Z,4.63
2017-12-24T03:18:29.866Z,5.00
2017-12-24T03:20:57.306Z,4.80
2017-12-24T03:23:24.739Z,4.90
2017-12-24T03:25:52.192Z,5.10
2017-12-24T03:28:19.686Z,5.07
2017-12-24T03:30:47.148Z,5.30
2017-12-24T03:33:14.638Z,4.70
2017-12-24T03:35:42.332Z,5.00
2017-12-24T03:38:09.761Z,4.93
2017-12-24T03:40:37.215Z,4.57
2017-12-24T03:43:05.351Z,4.60
2017-12-24T03:45:32.810Z,4.90
2017-12-24T03:48:00.503Z,4.63
2017-12-24T03:50:27.933Z,5.23
2017-12-24T03:52:55.381Z,4.77
2017-12-24T03:55:22.983Z,5.30
2017-12-24T03:57:50.423Z,4.60
2017-12-24T04:00:18.616Z,5.03
2017-12-24T04:02:47.439Z,5.07
2017-12-24T04:05:15.228Z,4.80
2017-12-24T04:07:42.659Z,4.53
2017-12-24T04:10:10.094Z,5.00
2017-12-24T04:12:37.556Z,4.60
2017-12-24T04:15:05.005Z,5.10
2017-12-24T04:17:32.701Z,4.50
2017-12-24T04:20:00.153Z,4.73
2017-12-24T04:22:27.661Z,4.67
2017-12-24T04:24:55.112Z,4.47
2017-12-24T04:27:22.548Z,4.77
2017-12-24T04:29:50.270Z,4.50
2017-12-24T04:32:17.808Z,4.73
2017-12-24T04:34:45.255Z,4.57
2017-12-24T04:37:12.701Z,4.77
2017-12-24T04:39:40.130Z,4.50
2017-12-24T04:42:07.591Z,5.03
2017-12-24T04:44:35.047Z,4.47
2017-12-24T04:47:02.736Z,4.70
2017-12-24T04:49:30.190Z,5.07
2017-12-24T04:51:57.714Z,4.90
2017-12-24T04:54:25.190Z,5.20
2017-12-24T04:56:52.635Z,4.70
2017-12-24T04:59:20.084Z,4.50
2017-12-24T05:01:52.583Z,4.67
2017-12-24T05:04:20.028Z,4.70
2017-12-24T05:06:47.498Z,4.77
2017-12-24T05:09:15.819Z,5.13
2017-12-24T05:11:43.264Z,5.20
2017-12-24T05:14:10.802Z,4.60
2017-12-24T05:16:38.239Z,4.80
2017-12-24T05:19:05.666Z,4.90
2017-12-24T05:21:33.132Z,4.57
2017-12-24T05:24:00.563Z,4.60
2017-12-24T05:26:28.021Z,4.97
2017-12-24T05:28:55.442Z,4.43
2017-12-24T05:31:22.933Z,5.10
2017-12-24T05:33:50.403Z,5.13
2017-12-24T05:36:17.835Z,4.90
2017-12-24T05:38:45.313Z,4.80
2017-12-24T05:41:12.741Z,4.50
2017-12-24T05:43:40.261Z,4.53
2017-12-24T05:46:08.712Z,4.93
2017-12-24T05:48:36.154Z,4.33
2017-12-24T05:51:03.652Z,4.50
2017-12-24T05:53:31.110Z,4.57
2017-12-24T05:55:58.568Z,5.00
2017-12-24T05:58:26.017Z,4.27
2017-12-24T06:00:53.511Z,4.63
2017-12-24T06:03:20.960Z,4.63
2017-12-24T06:05:48.408Z,4.87
2017-12-24T06:08:15.873Z,4.47
2017-12-24T06:10:43.318Z,4.70
2017-12-24T06:13:10.742Z,5.07
2017-12-24T06:15:38.475Z,4.67
2017-12-24T06:18:06.820Z,4.63
2017-12-24T06:20:34.270Z,5.23
2017-12-24T06:23:01.746Z,4.77
2017-12-24T06:25:29.210Z,5.00
2017-12-24T06:27:56.665Z,5.00
2017-12-24T06:30:24.192Z,4.63
2017-12-24T06:32:51.918Z,4.97
2017-12-24T06:35:19.351Z,4.77
2017-12-24T06:37:46.801Z,5.20
2017-12-24T06:40:14.744Z,4.60
2017-12-24T06:42:42.269Z,5.20
2017-12-24T06:45:10.462Z,4.40
2017-12-24T06:47:37.903Z,4.60
2017-12-24T06:50:05.622Z,4.87
2017-12-24T06:52:33.059Z,4.73
2017-12-24T06:55:00.515Z,4.47
2017-12-24T06:57:27.995Z,4.80
2017-12-24T06:59:55.432Z,4.73
2017-12-24T07:02:23.158Z,4.73
2017-12-24T07:04:50.626Z,4.60
2017-12-24T07:07:18.083Z,3.90
2017-12-24T07:09:45.567Z,5.07
2017-12-24T07:12:13.023Z,4.87
2017-12-24T07:14:40.463Z,5.07
2017-12-24T07:17:07.896Z,4.63
2017-12-24T07:19:35.579Z,4.73
2017-12-24T07:22:03.027Z,4.50
2017-12-24T07:24:30.463Z,4.30
2017-12-24T07:26:57.913Z,4.77
2017-12-24T07:29:25.344Z,4.30
2017-12-24T07:31:53.155Z,4.60
2017-12-24T07:34:20.602Z,4.67
2017-12-24T07:36:48.036Z,4.87
2017-12-24T07:39:15.470Z,4.37
2017-12-24T07:41:43.842Z,4.17
2017-12-24T07:44:11.278Z,5.07
2017-12-24T07:46:39.348Z,4.80
2017-12-24T07:49:07.700Z,5.00
2017-12-24T07:51:35.364Z,4.70
2017-12-24T07:54:03.790Z,4.53
2017-12-24T07:56:34.276Z,4.67
2017-12-24T07:59:01.720Z,4.23
2017-12-24T08:01:29.200Z,4.30
2017-12-24T08:03:57.689Z,4.60
2017-12-24T08:06:25.131Z,4.57
2017-12-24T08:08:53.117Z,4.73
2017-12-24T08:11:20.581Z,4.53
2017-12-24T08:13:48.129Z,4.30
2017-12-24T08:16:15.640Z,4.30
2017-12-24T08:18:43.172Z,4.83
2017-12-24T08:21:10.906Z,5.03
2017-12-24T08:23:38.352Z,4.43
2017-12-24T08:26:05.819Z,4.73
2017-12-24T08:28:33.293Z,4.70
2017-12-24T08:31:00.774Z,4.57
2017-12-24T08:33:28.271Z,4.10
2017-12-24T08:35:55.990Z,4.47
2017-12-24T08:38:23.439Z,4.17
2017-12-24T08:40:50.869Z,4.07
2017-12-24T08:43:18.351Z,4.17
2017-12-24T08:45:45.805Z,4.17
2017-12-24T08:48:15.353Z,3.50
2017-12-24T08:50:42.860Z,3.90
2017-12-24T08:53:10.308Z,3.90
2017-12-24T08:55:37.800Z,3.83
2017-12-24T08:58:05.234Z,4.17
2017-12-24T09:00:32.710Z,3.90
2017-12-24T09:03:00.185Z,3.73
2017-12-24T09:05:28.009Z,3.87
2017-12-24T09:07:55.509Z,4.00
2017-12-24T09:10:23.013Z,3.67
2017-12-24T09:12:50.593Z,3.53
2017-12-24T09:15:18.080Z,3.77
2017-12-24T09:17:46.280Z,3.73
2017-12-24T09:20:13.956Z,3.50
2017-12-24T09:22:41.572Z,3.20
2017-12-24T09:25:09.074Z,3.67
2017-12-24T09:27:36.527Z,3.50
2017-12-24T09:30:05.864Z,3.77
2017-12-24T09:32:33.347Z,3.40
2017-12-24T09:35:00.925Z,3.20
2017-12-24T09:37:28.430Z,3.23
2017-12-24T09:39:58.231Z,3.20
2017-12-24T09:42:27.941Z,3.33
2017-12-24T09:44:56.212Z,3.13
2017-12-24T09:47:23.961Z,3.00
2017-12-24T09:49:51.402Z,3.47
2017-12-24T09:52:18.856Z,3.40
2017-12-24T09:54:46.323Z,3.43
2017-12-24T09:57:13.803Z,3.00
2017-12-24T09:59:41.282Z,3.10
2017-12-24T10:02:08.798Z,2.93
2017-12-24T10:10:16.628Z,2.70
2017-12-24T10:12:44.189Z,2.60
2017-12-24T10:15:11.649Z,3.77
2017-12-24T10:17:39.111Z,3.73
2017-12-24T10:20:06.632Z,2.80
2017-12-24T10:22:34.092Z,2.80
2017-12-24T10:25:01.619Z,2.77
2017-12-24T10:27:29.071Z,2.70
2017-12-24T10:29:56.529Z,2.60
2017-12-24T10:32:23.972Z,2.93
2017-12-24T10:34:51.445Z,2.60
2017-12-24T10:37:18.955Z,2.77
2017-12-24T10:39:46.433Z,2.70
2017-12-24T10:42:13.921Z,3.27
2017-12-24T10:44:41.395Z,2.80
2017-12-24T10:47:08.815Z,2.90
2017-12-24T10:49:36.860Z,2.47
2017-12-24T10:52:04.350Z,2.33
2017-12-24T10:54:31.843Z,2.43
2017-12-24T10:56:59.309Z,2.50
2017-12-24T10:59:26.752Z,2.33
2017-12-24T11:01:54.315Z,2.80
2017-12-24T11:04:21.845Z,2.43
2017-12-24T11:06:49.350Z,2.73
2017-12-24T11:09:16.842Z,2.60
2017-12-24T11:11:45.386Z,2.10
2017-12-24T11:14:12.882Z,2.50
2017-12-24T11:16:40.379Z,2.47
2017-12-24T11:19:07.832Z,2.90
2017-12-24T11:21:40.344Z,2.77
2017-12-24T11:24:08.055Z,2.40
2017-12-24T11:26:35.504Z,2.30
2017-12-24T11:29:03.005Z,2.40
2017-12-24T11:31:30.516Z,2.67
2017-12-24T11:33:59.984Z,2.30
2017-12-24T11:36:27.513Z,2.47
2017-12-24T11:38:55.618Z,2.50
2017-12-24T11:41:28.233Z,2.70
2017-12-24T11:43:55.722Z,2.40
2017-12-24T11:46:23.244Z,2.40
2017-12-24T11:48:51.618Z,2.50
2017-12-24T11:51:19.697Z,2.70
2017-12-24T11:53:47.286Z,2.43
2017-12-24T11:56:14.756Z,2.40
2017-12-24T11:58:42.282Z,3.83
2017-12-24T12:01:09.795Z,2.60
2017-12-24T12:03:37.445Z,2.60
2017-12-24T12:06:05.204Z,2.70
2017-12-24T12:08:32.730Z,2.37
2017-12-24T12:11:00.287Z,2.33
2017-12-24T12:13:28.433Z,2.50
2017-12-24T12:15:55.900Z,2.73
2017-12-24T12:18:24.264Z,2.40
2017-12-24T12:20:51.773Z,2.50
2017-12-24T12:23:19.663Z,2.33
2017-12-24T12:25:47.134Z,2.33
2017-12-24T12:28:14.731Z,2.40
2017-12-24T12:30:42.237Z,2.60
2017-12-24T12:33:14.872Z,2.60
2017-12-24T12:35:42.516Z,2.10
2017-12-24T12:38:10.027Z,2.47
2017-12-24T12:40:37.584Z,2.57
2017-12-24T12:43:05.109Z,2.50
2017-12-24T12:45:32.599Z,2.40
2017-12-24T12:48:00.329Z,2.37
2017-12-24T12:50:28.653Z,2.37
2017-12-24T12:52:56.157Z,2.50
2017-12-24T12:55:23.851Z,2.33
2017-12-24T12:57:51.411Z,2.63
2017-12-24T13:00:18.905Z,2.57
2017-12-24T13:02:46.506Z,2.60
2017-12-24T13:05:14.159Z,2.47
2017-12-24T13:07:41.690Z,2.10
2017-12-24T13:10:09.411Z,2.23
2017-12-24T13:12:37.153Z,2.53
2017-12-24T13:15:04.681Z,2.30
2017-12-24T13:17:32.140Z,2.33
2017-12-24T13:19:59.740Z,2.53
2017-12-24T13:22:27.864Z,2.50
2017-12-24T13:24:55.593Z,2.83
2017-12-24T13:27:23.087Z,3.93
2017-12-24T13:29:51.300Z,3.30
2017-12-24T13:32:18.972Z,3.40
2017-12-24T13:34:46.472Z,2.60
2017-12-24T13:37:13.981Z,2.30
2017-12-24T13:39:41.408Z,2.67
2017-12-24T13:42:08.990Z,2.53
2017-12-24T13:44:36.477Z,2.27
2017-12-24T13:47:04.053Z,2.33
2017-12-24T13:49:31.445Z,2.23
2017-12-24T13:51:58.894Z,2.70
2017-12-24T13:54:26.370Z,2.40
2017-12-24T13:56:53.872Z,2.60
2017-12-24T13:59:22.627Z,2.60
2017-12-24T14:01:51.920Z,2.23
2017-12-24T14:04:19.421Z,2.53
2017-12-24T14:06:46.901Z,2.40
2017-12-24T14:09:14.372Z,2.40
2017-12-24T14:11:41.872Z,2.50
2017-12-24T14:14:09.393Z,2.43
2017-12-24T14:16:36.840Z,2.53
2017-12-24T14:19:04.317Z,2.07
2017-12-24T14:21:31.799Z,2.20
2017-12-24T14:23:59.374Z,2.50
2017-12-24T14:26:26.839Z,2.50
2017-12-24T14:28:54.302Z,2.70
2017-12-24T14:31:21.740Z,3.07
2017-12-24T14:33:49.198Z,2.50
2017-12-24T14:36:16.736Z,2.40
2017-12-24T14:38:44.299Z,3.87
2017-12-24T14:41:11.824Z,3.23
2017-12-24T14:43:39.469Z,2.57
2017-12-24T14:46:06.970Z,2.60
2017-12-24T14:48:34.415Z,2.50
2017-12-24T14:51:01.878Z,2.57
2017-12-24T14:53:29.378Z,2.80
2017-12-24T14:55:56.801Z,2.50
2017-12-24T14:58:24.295Z,2.47
2017-12-24T15:00:51.826Z,2.37
2017-12-24T15:03:19.295Z,2.70
2017-12-24T15:05:46.845Z,2.27
2017-12-24T15:08:14.340Z,2.30
2017-12-24T15:10:41.760Z,2.63
2017-12-24T15:13:28.455Z,2.43
2017-12-24T15:15:55.868Z,2.70
2017-12-24T15:18:23.326Z,2.67
2017-12-24T15:20:50.773Z,2.30
2017-12-24T15:23:18.896Z,2.40
2017-12-24T15:25:46.448Z,2.20
2017-12-24T15:28:13.945Z,2.20
2017-12-24T15:30:41.404Z,2.30
2017-12-24T15:33:09.180Z,2.30
2017-12-24T15:35:36.646Z,2.63
2017-12-24T15:38:04.105Z,2.33
2017-12-24T15:40:31.556Z,2.23
2017-12-24T15:42:59.060Z,2.33
2017-12-24T15:45:26.589Z,2.27
2017-12-24T15:47:54.043Z,2.30
2017-12-24T15:50:21.487Z,2.23
2017-12-24T15:52:48.965Z,2.40
2017-12-24T15:55:16.400Z,2.40
2017-12-24T15:57:43.903Z,2.50
2017-12-24T16:00:12.113Z,2.40
2017-12-24T16:02:39.563Z,2.53
2017-12-24T16:05:07.087Z,2.57
2017-12-24T16:07:34.551Z,2.10
2017-12-24T16:10:02.030Z,2.17
2017-12-24T16:12:29.499Z,2.50
2017-12-24T16:14:56.932Z,2.30
2017-12-24T16:17:24.416Z,2.33
2017-12-24T16:19:51.929Z,2.07
2017-12-24T16:22:19.404Z,2.60
2017-12-24T16:24:46.880Z,2.30
2017-12-24T16:27:14.329Z,2.50
2017-12-24T16:29:41.818Z,2.70
2017-12-24T16:32:09.437Z,2.30
2017-12-24T16:34:36.927Z,2.40
2017-12-24T16:37:04.373Z,2.83
2017-12-24T16:39:31.847Z,2.60
2017-12-24T16:41:59.377Z,2.80
2017-12-24T16:44:26.878Z,2.67
2017-12-24T16:46:54.333Z,2.53
2017-12-24T16:49:21.832Z,2.50
2017-12-24T16:51:49.321Z,2.80
2017-12-24T16:54:16.772Z,2.60
2017-12-24T16:56:44.223Z,2.70
2017-12-24T16:59:11.656Z,2.73
2017-12-24T17:01:39.193Z,2.70
2017-12-24T17:04:06.662Z,3.30
2017-12-24T17:06:34.136Z,2.50
2017-12-24T17:09:01.572Z,2.90
2017-12-24T17:11:29.072Z,3.60
2017-12-24T17:13:56.524Z,2.77
2017-12-24T17:16:24.071Z,2.90
2017-12-24T17:18:51.552Z,3.00
2017-12-24T17:21:19.909Z,2.83
2017-12-24T17:23:47.513Z,2.60
2017-12-24T17:26:14.968Z,3.03
2017-12-24T17:28:42.917Z,2.83
2017-12-24T17:31:10.372Z,3.00
2017-12-24T17:33:43.646Z,3.33
2017-12-24T17:36:11.219Z,2.77
2017-12-24T17:38:38.773Z,2.60
2017-12-24T17:41:06.317Z,2.60
2017-12-24T17:43:34.429Z,2.67
2017-12-24T17:46:01.936Z,2.47
2017-12-24T17:48:29.521Z,2.60
2017-12-24T17:50:57.172Z,2.57
2017-12-24T17:53:25.426Z,2.93
2017-12-24T17:55:53.861Z,3.00
2017-12-24T17:58:21.384Z,2.40
2017-12-24T18:00:50.697Z,2.60
2017-12-24T18:03:18.218Z,2.63
2017-12-24T18:05:45.686Z,2.53
2017-12-24T18:08:14.586Z,2.57
2017-12-24T18:10:42.296Z,2.73
2017-12-24T18:13:09.813Z,9.27
2017-12-24T18:15:37.589Z,9.93
2017-12-24T18:18:05.249Z,3.13
2017-12-24T18:20:33.697Z,2.57
2017-12-24T18:23:01.209Z,2.30
2017-12-24T18:25:28.699Z,2.60
2017-12-24T18:27:58.438Z,2.73
2017-12-24T18:30:25.950Z,2.53
2017-12-24T18:32:53.464Z,2.50
2017-12-24T18:35:21.687Z,2.97
2017-12-24T18:37:49.164Z,2.80
2017-12-24T18:40:16.630Z,2.70
2017-12-24T18:42:49.747Z,2.70
2017-12-24T18:45:17.209Z,2.60
2017-12-24T18:47:45.661Z,2.53
2017-12-24T18:50:13.150Z,2.83
2017-12-24T18:52:45.718Z,2.70
2017-12-24T18:55:13.176Z,2.43
2017-12-24T18:57:40.727Z,2.83
2017-12-24T19:00:08.258Z,2.90
2017-12-24T19:02:35.727Z,2.67
2017-12-24T19:05:03.209Z,2.70
2017-12-24T19:07:30.866Z,2.60
2017-12-24T19:09:58.488Z,2.67
2017-12-24T19:12:26.080Z,2.73
2017-12-24T19:14:53.801Z,2.70
2017-12-24T19:17:21.292Z,2.70
2017-12-24T19:19:48.791Z,2.43
2017-12-24T19:22:16.282Z,2.60
2017-12-24T19:24:43.751Z,2.60
2017-12-24T19:27:11.491Z,5.17
2017-12-24T19:29:38.933Z,11.07
2017-12-24T19:32:06.404Z,2.80
2017-12-24T19:34:33.874Z,3.07
2017-12-24T19:37:01.335Z,2.63
2017-12-24T19:39:28.906Z,4.00
2017-12-24T19:41:56.441Z,3.40
2017-12-24T19:44:23.930Z,4.40
2017-12-24T19:46:51.388Z,4.07
2017-12-24T19:49:18.896Z,3.47
2017-12-24T19:51:46.342Z,3.47
2017-12-24T19:54:13.906Z,2.83
2017-12-24T19:56:41.396Z,4.50
2017-12-24T19:59:09.605Z,4.20
2017-12-24T20:01:42.089Z,2.70
2017-12-24T20:04:09.545Z,2.87
2017-12-24T20:06:37.034Z,2.67
2017-12-24T20:09:04.517Z,2.70
2017-12-24T20:11:31.985Z,3.10
2017-12-24T20:13:59.489Z,3.27
2017-12-24T20:16:26.962Z,2.73
2017-12-24T20:18:54.427Z,2.80
2017-12-24T20:21:21.861Z,2.40
2017-12-24T20:23:49.379Z,2.30
2017-12-24T20:26:16.827Z,2.70
2017-12-24T20:28:45.756Z,2.30
2017-12-24T20:31:13.224Z,2.40
2017-12-24T20:33:41.036Z,2.40
2017-12-24T20:36:08.452Z,4.33
2017-12-24T20:38:35.935Z,7.50
2017-12-24T20:41:03.386Z,2.40
2017-12-24T20:43:30.872Z,2.20
2017-12-24T20:45:58.331Z,2.40
2017-12-24T20:48:25.818Z,2.40
2017-12-24T20:50:53.323Z,2.00
2017-12-24T20:53:20.805Z,2.40
2017-12-24T20:55:48.409Z,2.80
2017-12-24T20:58:15.865Z,2.47
2017-12-24T21:00:43.342Z,2.30
2017-12-24T21:03:10.776Z,2.53
2017-12-24T21:05:38.215Z,2.40
2017-12-24T21:08:05.673Z,2.97
2017-12-24T21:10:33.151Z,2.83
2017-12-24T21:13:00.677Z,2.23
2017-12-24T21:15:28.120Z,1.93
2017-12-24T21:17:55.630Z,2.03
2017-12-24T21:20:23.149Z,2.50
2017-12-24T21:22:50.661Z,2.10
2017-12-24T21:25:18.108Z,2.07
2017-12-24T21:27:45.612Z,2.13
2017-12-24T21:30:13.168Z,2.10
2017-12-24T21:32:40.617Z,2.33
2017-12-24T21:35:08.068Z,2.17
2017-12-24T21:37:35.512Z,2.10
2017-12-24T21:40:02.993Z,2.00
2017-12-24T21:42:30.449Z,2.10
2017-12-24T21:44:57.892Z,1.90
2017-12-24T21:47:25.361Z,2.23
2017-12-24T21:49:52.878Z,2.30
2017-12-24T21:52:20.373Z,2.17
2017-12-24T21:54:47.900Z,2.40
2017-12-24T21:57:15.361Z,2.20
2017-12-24T21:59:42.851Z,5.83
2017-12-24T22:02:10.329Z,29.70
2017-12-24T22:04:37.783Z,2.37
2017-12-24T22:07:05.329Z,2.10
2017-12-24T22:09:32.777Z,2.23
2017-12-24T22:12:00.314Z,2.00
2017-12-24T22:14:27.810Z,2.30
2017-12-24T22:16:55.252Z,2.20
2017-12-24T22:19:22.776Z,2.40
2017-12-24T22:21:50.317Z,2.30
2017-12-24T22:24:17.813Z,2.43
2017-12-24T22:26:45.265Z,2.40
2017-12-24T22:29:13.428Z,2.30
2017-12-24T22:31:46.972Z,2.40
2017-12-24T22:34:14.469Z,2.40
2017-12-24T22:36:41.927Z,2.20
2017-12-24T22:39:09.358Z,2.50
2017-12-24T22:41:36.872Z,2.43
2017-12-24T22:44:04.330Z,2.30
2017-12-24T22:46:31.776Z,2.00
2017-12-24T22:48:59.284Z,2.10
2017-12-24T22:51:26.782Z,2.40
2017-12-24T22:53:54.247Z,2.33
2017-12-24T22:56:21.689Z,2.20
2017-12-24T22:58:50.026Z,2.10
2017-12-24T23:01:17.523Z,2.20
2017-12-24T23:03:44.972Z,2.10
2017-12-24T23:06:12.471Z,2.27
2017-12-24T23:08:39.925Z,2.30
2017-12-24T23:11:08.240Z,2.07
2017-12-24T23:13:35.691Z,2.13
2017-12-24T23:16:03.151Z,2.13
2017-12-24T23:18:30.640Z,1.90
2017-12-24T23:20:58.116Z,2.20
2017-12-24T23:23:25.628Z,2.00
2017-12-24T23:25:53.113Z,2.20
2017-12-24T23:28:20.915Z,2.20
2017-12-24T23:30:48.461Z,2.10
2017-12-24T23:33:15.913Z,2.20
2017-12-24T23:35:43.393Z,2.00
2017-12-24T23:38:10.877Z,2.13
2017-12-24T23:40:38.312Z,1.93
2017-12-24T23:43:05.748Z,2.03
2017-12-24T23:45:33.213Z,1.97
2017-12-24T23:48:00.668Z,2.00
2017-12-24T23:50:28.113Z,2.10
2017-12-24T23:52:55.576Z,2.07
2017-12-24T23:55:23.042Z,2.20
2017-12-24T23:57:50.732Z,2.33
